sensor_id;sensor_type;location;lat;lon;timestamp;P1;durP1;ratioP1;P2;durP2;ratioP2
23206;SDS011;11773;52.570;13.052;2022-10-16T00:01:52;0.67;;;0.40;;
23206;SDS011;11773;52.570;13.052;2022-10-16T00:04:22;0.27;;;0.27;;
23206;SDS011;11773;52.570;13.052;2022-10-16T00:06:51;0.30;;;0.30;;
23206;SDS011;11773;52.570;13.052;2022-10-16T00:09:20;0.30;;;0.30;;
23206;SDS011;11773;52.570;13.052;2022-10-16T00:11:50;0.30;;;0.30;;
23206;SDS011;11773;52.570;13.052;2022-10-16T00:14:20;0.40;;;0.30;;
23206;SDS011;11773;52.570;13.052;2022-10-16T00:16:49;0.27;;;0.27;;
23206;SDS011;11773;52.570;13.052;2022-10-16T00:19:19;0.37;;;0.37;;
23206;SDS011;11773;52.570;13.052;2022-10-16T00:21:48;0.37;;;0.37;;
23206;SDS011;11773;52.570;13.052;2022-10-16T00:24:18;0.30;;;0.30;;
23206;SDS011;11773;52.570;13.052;2022-10-16T00:26:48;0.27;;;0.27;;
23206;SDS011;11773;52.570;13.052;2022-10-16T00:29:18;0.30;;;0.30;;
23206;SDS011;11773;52.570;13.052;2022-10-16T00:31:47;0.30;;;0.30;;
23206;SDS011;11773;52.570;13.052;2022-10-16T00:34:17;0.30;;;0.30;;
23206;SDS011;11773;52.570;13.052;2022-10-16T00:36:46;0.50;;;0.50;;
23206;SDS011;11773;52.570;13.052;2022-10-16T00:39:16;0.40;;;0.40;;
23206;SDS011;11773;52.570;13.052;2022-10-16T00:41:46;0.37;;;0.30;;
23206;SDS011;11773;52.570;13.052;2022-10-16T00:47:26;0.40;;;0.40;;
23206;SDS011;11773;52.570;13.052;2022-10-16T00:50:00;0.30;;;0.30;;
23206;SDS011;11773;52.570;13.052;2022-10-16T00:52:38;0.30;;;0.30;;
23206;SDS011;11773;52.570;13.052;2022-10-16T00:55:11;0.43;;;0.43;;
23206;SDS011;11773;52.570;13.052;2022-10-16T00:57:42;0.40;;;0.30;;
23206;SDS011;11773;52.570;13.052;2022-10-16T01:00:15;0.30;;;0.30;;
23206;SDS011;11773;52.570;13.052;2022-10-16T01:02:59;0.20;;;0.20;;
23206;SDS011;11773;52.570;13.052;2022-10-16T01:05:42;0.27;;;0.27;;
23206;SDS011;11773;52.570;13.052;2022-10-16T01:08:13;0.30;;;0.30;;
23206;SDS011;11773;52.570;13.052;2022-10-16T01:13:40;0.30;;;0.30;;
23206;SDS011;11773;52.570;13.052;2022-10-16T01:16:13;0.30;;;0.30;;
23206;SDS011;11773;52.570;13.052;2022-10-16T01:19:10;0.30;;;0.30;;
23206;SDS011;11773;52.570;13.052;2022-10-16T01:21:51;0.37;;;0.37;;
23206;SDS011;11773;52.570;13.052;2022-10-16T01:24:38;0.37;;;0.37;;
23206;SDS011;11773;52.570;13.052;2022-10-16T01:27:31;0.40;;;0.40;;
23206;SDS011;11773;52.570;13.052;2022-10-16T01:30:02;0.30;;;0.30;;
23206;SDS011;11773;52.570;13.052;2022-10-16T01:32:43;0.30;;;0.30;;
23206;SDS011;11773;52.570;13.052;2022-10-16T01:35:25;0.20;;;0.20;;
23206;SDS011;11773;52.570;13.052;2022-10-16T01:38:05;0.20;;;0.20;;
23206;SDS011;11773;52.570;13.052;2022-10-16T01:40:45;0.30;;;0.30;;
23206;SDS011;11773;52.570;13.052;2022-10-16T01:43:19;0.20;;;0.20;;
23206;SDS011;11773;52.570;13.052;2022-10-16T01:45:59;0.30;;;0.30;;
23206;SDS011;11773;52.570;13.052;2022-10-16T01:48:30;0.23;;;0.23;;
23206;SDS011;11773;52.570;13.052;2022-10-16T01:51:08;0.30;;;0.30;;
23206;SDS011;11773;52.570;13.052;2022-10-16T01:53:43;0.30;;;0.30;;
23206;SDS011;11773;52.570;13.052;2022-10-16T01:56:16;0.20;;;0.20;;
23206;SDS011;11773;52.570;13.052;2022-10-16T01:58:50;0.20;;;0.20;;
23206;SDS011;11773;52.570;13.052;2022-10-16T02:01:26;0.33;;;0.33;;
23206;SDS011;11773;52.570;13.052;2022-10-16T02:04:00;0.30;;;0.30;;
23206;SDS011;11773;52.570;13.052;2022-10-16T02:06:33;0.30;;;0.30;;
23206;SDS011;11773;52.570;13.052;2022-10-16T02:09:03;0.30;;;0.30;;
23206;SDS011;11773;52.570;13.052;2022-10-16T02:11:32;0.40;;;0.40;;
23206;SDS011;11773;52.570;13.052;2022-10-16T02:14:03;0.30;;;0.30;;
23206;SDS011;11773;52.570;13.052;2022-10-16T02:16:36;0.23;;;0.23;;
23206;SDS011;11773;52.570;13.052;2022-10-16T02:19:09;0.27;;;0.27;;
23206;SDS011;11773;52.570;13.052;2022-10-16T02:21:48;0.37;;;0.37;;
23206;SDS011;11773;52.570;13.052;2022-10-16T02:27:32;0.30;;;0.30;;
23206;SDS011;11773;52.570;13.052;2022-10-16T02:30:14;0.30;;;0.30;;
23206;SDS011;11773;52.570;13.052;2022-10-16T02:32:50;0.33;;;0.33;;
23206;SDS011;11773;52.570;13.052;2022-10-16T02:35:22;0.20;;;0.20;;
23206;SDS011;11773;52.570;13.052;2022-10-16T02:37:54;0.43;;;0.43;;
23206;SDS011;11773;52.570;13.052;2022-10-16T02:40:25;0.27;;;0.23;;
23206;SDS011;11773;52.570;13.052;2022-10-16T02:42:56;0.30;;;0.30;;
23206;SDS011;11773;52.570;13.052;2022-10-16T02:45:25;0.20;;;0.20;;
23206;SDS011;11773;52.570;13.052;2022-10-16T02:47:56;0.30;;;0.30;;
23206;SDS011;11773;52.570;13.052;2022-10-16T02:50:25;0.30;;;0.30;;
23206;SDS011;11773;52.570;13.052;2022-10-16T02:52:55;0.20;;;0.20;;
23206;SDS011;11773;52.570;13.052;2022-10-16T02:55:24;0.27;;;0.27;;
23206;SDS011;11773;52.570;13.052;2022-10-16T02:57:54;0.30;;;0.30;;
23206;SDS011;11773;52.570;13.052;2022-10-16T03:00:24;0.30;;;0.30;;
23206;SDS011;11773;52.570;13.052;2022-10-16T03:02:53;0.20;;;0.20;;
23206;SDS011;11773;52.570;13.052;2022-10-16T03:05:23;0.20;;;0.20;;
23206;SDS011;11773;52.570;13.052;2022-10-16T03:07:52;0.37;;;0.37;;
23206;SDS011;11773;52.570;13.052;2022-10-16T03:10:22;0.30;;;0.30;;
23206;SDS011;11773;52.570;13.052;2022-10-16T03:12:52;0.20;;;0.20;;
23206;SDS011;11773;52.570;13.052;2022-10-16T03:15:21;0.30;;;0.30;;
23206;SDS011;11773;52.570;13.052;2022-10-16T03:17:51;0.30;;;0.30;;
23206;SDS011;11773;52.570;13.052;2022-10-16T03:20:20;0.20;;;0.20;;
23206;SDS011;11773;52.570;13.052;2022-10-16T03:22:50;0.30;;;0.30;;
23206;SDS011;11773;52.570;13.052;2022-10-16T03:25:19;0.30;;;0.30;;
23206;SDS011;11773;52.570;13.052;2022-10-16T03:27:49;0.10;;;0.10;;
23206;SDS011;11773;52.570;13.052;2022-10-16T03:30:18;0.40;;;0.40;;
23206;SDS011;11773;52.570;13.052;2022-10-16T03:32:48;0.30;;;0.30;;
23206;SDS011;11773;52.570;13.052;2022-10-16T03:35:20;0.23;;;0.23;;
23206;SDS011;11773;52.570;13.052;2022-10-16T03:37:51;0.20;;;0.20;;
23206;SDS011;11773;52.570;13.052;2022-10-16T03:40:20;0.30;;;0.30;;
23206;SDS011;11773;52.570;13.052;2022-10-16T03:42:50;0.33;;;0.33;;
23206;SDS011;11773;52.570;13.052;2022-10-16T03:45:21;0.10;;;0.10;;
23206;SDS011;11773;52.570;13.052;2022-10-16T03:47:51;0.20;;;0.20;;
23206;SDS011;11773;52.570;13.052;2022-10-16T03:50:20;0.20;;;0.20;;
23206;SDS011;11773;52.570;13.052;2022-10-16T03:52:50;0.20;;;0.20;;
23206;SDS011;11773;52.570;13.052;2022-10-16T03:55:19;0.30;;;0.30;;
23206;SDS011;11773;52.570;13.052;2022-10-16T03:57:49;0.30;;;0.30;;
23206;SDS011;11773;52.570;13.052;2022-10-16T04:00:18;0.13;;;0.13;;
23206;SDS011;11773;52.570;13.052;2022-10-16T04:02:48;0.10;;;0.10;;
23206;SDS011;11773;52.570;13.052;2022-10-16T04:05:17;0.30;;;0.30;;
23206;SDS011;11773;52.570;13.052;2022-10-16T04:07:47;0.30;;;0.30;;
23206;SDS011;11773;52.570;13.052;2022-10-16T04:10:16;0.30;;;0.30;;
23206;SDS011;11773;52.570;13.052;2022-10-16T04:12:46;0.20;;;0.20;;
23206;SDS011;11773;52.570;13.052;2022-10-16T04:15:15;0.20;;;0.20;;
23206;SDS011;11773;52.570;13.052;2022-10-16T04:17:45;0.17;;;0.17;;
23206;SDS011;11773;52.570;13.052;2022-10-16T04:20:14;0.47;;;0.20;;
23206;SDS011;11773;52.570;13.052;2022-10-16T04:22:44;0.17;;;0.17;;
23206;SDS011;11773;52.570;13.052;2022-10-16T04:25:14;0.27;;;0.27;;
23206;SDS011;11773;52.570;13.052;2022-10-16T04:27:43;0.20;;;0.20;;
23206;SDS011;11773;52.570;13.052;2022-10-16T04:30:13;0.20;;;0.20;;
23206;SDS011;11773;52.570;13.052;2022-10-16T04:32:42;0.20;;;0.20;;
23206;SDS011;11773;52.570;13.052;2022-10-16T04:35:13;0.20;;;0.20;;
23206;SDS011;11773;52.570;13.052;2022-10-16T04:37:43;0.20;;;0.20;;
23206;SDS011;11773;52.570;13.052;2022-10-16T04:40:13;0.20;;;0.20;;
23206;SDS011;11773;52.570;13.052;2022-10-16T04:42:43;0.20;;;0.20;;
23206;SDS011;11773;52.570;13.052;2022-10-16T04:45:12;0.20;;;0.20;;
23206;SDS011;11773;52.570;13.052;2022-10-16T04:47:43;0.20;;;0.20;;
23206;SDS011;11773;52.570;13.052;2022-10-16T04:50:12;0.23;;;0.20;;
23206;SDS011;11773;52.570;13.052;2022-10-16T04:52:42;0.27;;;0.10;;
23206;SDS011;11773;52.570;13.052;2022-10-16T04:55:12;0.30;;;0.30;;
23206;SDS011;11773;52.570;13.052;2022-10-16T04:57:42;0.10;;;0.10;;
23206;SDS011;11773;52.570;13.052;2022-10-16T05:00:12;0.17;;;0.17;;
23206;SDS011;11773;52.570;13.052;2022-10-16T05:02:41;0.10;;;0.10;;
23206;SDS011;11773;52.570;13.052;2022-10-16T05:05:11;0.20;;;0.20;;
23206;SDS011;11773;52.570;13.052;2022-10-16T05:07:41;0.20;;;0.20;;
23206;SDS011;11773;52.570;13.052;2022-10-16T05:10:10;0.20;;;0.20;;
23206;SDS011;11773;52.570;13.052;2022-10-16T05:12:40;0.10;;;0.10;;
23206;SDS011;11773;52.570;13.052;2022-10-16T05:15:09;0.20;;;0.20;;
23206;SDS011;11773;52.570;13.052;2022-10-16T05:17:39;0.20;;;0.20;;
23206;SDS011;11773;52.570;13.052;2022-10-16T05:20:10;0.23;;;0.23;;
23206;SDS011;11773;52.570;13.052;2022-10-16T05:22:40;0.10;;;0.10;;
23206;SDS011;11773;52.570;13.052;2022-10-16T05:25:09;0.40;;;0.10;;
23206;SDS011;11773;52.570;13.052;2022-10-16T05:27:39;0.40;;;0.40;;
23206;SDS011;11773;52.570;13.052;2022-10-16T05:30:09;0.57;;;0.30;;
23206;SDS011;11773;52.570;13.052;2022-10-16T05:32:38;0.27;;;0.27;;
23206;SDS011;11773;52.570;13.052;2022-10-16T05:35:08;0.30;;;0.30;;
23206;SDS011;11773;52.570;13.052;2022-10-16T05:37:38;0.60;;;0.20;;
23206;SDS011;11773;52.570;13.052;2022-10-16T05:40:08;0.30;;;0.30;;
23206;SDS011;11773;52.570;13.052;2022-10-16T05:42:40;0.30;;;0.30;;
23206;SDS011;11773;52.570;13.052;2022-10-16T05:45:09;0.30;;;0.30;;
23206;SDS011;11773;52.570;13.052;2022-10-16T05:47:40;0.37;;;0.37;;
23206;SDS011;11773;52.570;13.052;2022-10-16T05:50:09;0.27;;;0.27;;
23206;SDS011;11773;52.570;13.052;2022-10-16T05:52:39;0.30;;;0.30;;
23206;SDS011;11773;52.570;13.052;2022-10-16T05:55:08;0.40;;;0.30;;
23206;SDS011;11773;52.570;13.052;2022-10-16T05:57:38;0.20;;;0.20;;
23206;SDS011;11773;52.570;13.052;2022-10-16T06:00:07;0.20;;;0.20;;
23206;SDS011;11773;52.570;13.052;2022-10-16T06:02:38;0.27;;;0.27;;
23206;SDS011;11773;52.570;13.052;2022-10-16T06:05:08;0.30;;;0.30;;
23206;SDS011;11773;52.570;13.052;2022-10-16T06:07:37;0.30;;;0.30;;
23206;SDS011;11773;52.570;13.052;2022-10-16T06:10:07;0.30;;;0.30;;
23206;SDS011;11773;52.570;13.052;2022-10-16T06:12:36;0.43;;;0.37;;
23206;SDS011;11773;52.570;13.052;2022-10-16T06:15:06;0.50;;;0.50;;
23206;SDS011;11773;52.570;13.052;2022-10-16T06:17:36;0.50;;;0.50;;
23206;SDS011;11773;52.570;13.052;2022-10-16T06:20:06;0.60;;;0.60;;
23206;SDS011;11773;52.570;13.052;2022-10-16T06:22:37;0.70;;;0.70;;
23206;SDS011;11773;52.570;13.052;2022-10-16T06:25:06;0.60;;;0.60;;
23206;SDS011;11773;52.570;13.052;2022-10-16T06:27:38;0.50;;;0.50;;
23206;SDS011;11773;52.570;13.052;2022-10-16T06:30:10;0.50;;;0.50;;
23206;SDS011;11773;52.570;13.052;2022-10-16T06:32:39;0.40;;;0.40;;
23206;SDS011;11773;52.570;13.052;2022-10-16T06:35:09;0.57;;;0.50;;
23206;SDS011;11773;52.570;13.052;2022-10-16T06:37:38;0.50;;;0.50;;
23206;SDS011;11773;52.570;13.052;2022-10-16T06:40:08;0.40;;;0.40;;
23206;SDS011;11773;52.570;13.052;2022-10-16T06:42:37;0.50;;;0.50;;
23206;SDS011;11773;52.570;13.052;2022-10-16T06:45:07;0.20;;;0.20;;
23206;SDS011;11773;52.570;13.052;2022-10-16T06:47:37;0.20;;;0.20;;
23206;SDS011;11773;52.570;13.052;2022-10-16T06:50:07;0.43;;;0.43;;
23206;SDS011;11773;52.570;13.052;2022-10-16T06:52:36;0.40;;;0.40;;
23206;SDS011;11773;52.570;13.052;2022-10-16T06:55:06;0.30;;;0.30;;
23206;SDS011;11773;52.570;13.052;2022-10-16T06:57:36;0.30;;;0.30;;
23206;SDS011;11773;52.570;13.052;2022-10-16T07:00:05;0.37;;;0.37;;
23206;SDS011;11773;52.570;13.052;2022-10-16T07:02:35;0.30;;;0.30;;
23206;SDS011;11773;52.570;13.052;2022-10-16T07:05:05;0.30;;;0.30;;
23206;SDS011;11773;52.570;13.052;2022-10-16T07:07:35;0.20;;;0.20;;
23206;SDS011;11773;52.570;13.052;2022-10-16T07:10:04;0.30;;;0.30;;
23206;SDS011;11773;52.570;13.052;2022-10-16T07:12:34;0.30;;;0.30;;
23206;SDS011;11773;52.570;13.052;2022-10-16T07:15:04;0.40;;;0.40;;
23206;SDS011;11773;52.570;13.052;2022-10-16T07:17:34;0.30;;;0.30;;
23206;SDS011;11773;52.570;13.052;2022-10-16T07:20:03;0.20;;;0.20;;
23206;SDS011;11773;52.570;13.052;2022-10-16T07:22:33;0.40;;;0.40;;
23206;SDS011;11773;52.570;13.052;2022-10-16T07:25:03;0.30;;;0.30;;
23206;SDS011;11773;52.570;13.052;2022-10-16T07:27:33;0.20;;;0.20;;
23206;SDS011;11773;52.570;13.052;2022-10-16T07:30:04;0.30;;;0.30;;
23206;SDS011;11773;52.570;13.052;2022-10-16T07:32:35;0.50;;;0.50;;
23206;SDS011;11773;52.570;13.052;2022-10-16T07:35:04;0.30;;;0.30;;
23206;SDS011;11773;52.570;13.052;2022-10-16T07:37:34;0.30;;;0.27;;
23206;SDS011;11773;52.570;13.052;2022-10-16T07:40:04;0.27;;;0.27;;
23206;SDS011;11773;52.570;13.052;2022-10-16T07:42:35;0.30;;;0.30;;
23206;SDS011;11773;52.570;13.052;2022-10-16T07:45:04;0.30;;;0.30;;
23206;SDS011;11773;52.570;13.052;2022-10-16T07:47:34;0.30;;;0.30;;
23206;SDS011;11773;52.570;13.052;2022-10-16T07:50:04;0.40;;;0.40;;
23206;SDS011;11773;52.570;13.052;2022-10-16T07:52:33;0.40;;;0.40;;
23206;SDS011;11773;52.570;13.052;2022-10-16T07:55:03;0.30;;;0.30;;
23206;SDS011;11773;52.570;13.052;2022-10-16T07:57:33;0.23;;;0.23;;
23206;SDS011;11773;52.570;13.052;2022-10-16T08:00:02;0.30;;;0.30;;
23206;SDS011;11773;52.570;13.052;2022-10-16T08:02:32;0.33;;;0.33;;
23206;SDS011;11773;52.570;13.052;2022-10-16T08:05:02;0.20;;;0.20;;
23206;SDS011;11773;52.570;13.052;2022-10-16T08:07:32;0.30;;;0.30;;
23206;SDS011;11773;52.570;13.052;2022-10-16T08:10:02;0.30;;;0.30;;
23206;SDS011;11773;52.570;13.052;2022-10-16T08:12:32;0.37;;;0.37;;
23206;SDS011;11773;52.570;13.052;2022-10-16T08:15:01;0.20;;;0.20;;
23206;SDS011;11773;52.570;13.052;2022-10-16T08:17:31;0.27;;;0.27;;
23206;SDS011;11773;52.570;13.052;2022-10-16T08:20:01;0.73;;;0.40;;
23206;SDS011;11773;52.570;13.052;2022-10-16T08:22:31;0.43;;;0.40;;
23206;SDS011;11773;52.570;13.052;2022-10-16T08:25:01;0.30;;;0.30;;
23206;SDS011;11773;52.570;13.052;2022-10-16T08:27:31;0.40;;;0.30;;
23206;SDS011;11773;52.570;13.052;2022-10-16T08:30:01;0.30;;;0.30;;
23206;SDS011;11773;52.570;13.052;2022-10-16T08:32:31;0.37;;;0.37;;
23206;SDS011;11773;52.570;13.052;2022-10-16T08:35:01;0.40;;;0.40;;
23206;SDS011;11773;52.570;13.052;2022-10-16T08:37:31;0.47;;;0.47;;
23206;SDS011;11773;52.570;13.052;2022-10-16T08:40:02;0.40;;;0.40;;
23206;SDS011;11773;52.570;13.052;2022-10-16T08:42:38;0.40;;;0.40;;
23206;SDS011;11773;52.570;13.052;2022-10-16T08:48:03;0.47;;;0.47;;
23206;SDS011;11773;52.570;13.052;2022-10-16T08:50:57;0.33;;;0.33;;
23206;SDS011;11773;52.570;13.052;2022-10-16T08:53:36;0.40;;;0.40;;
23206;SDS011;11773;52.570;13.052;2022-10-16T08:56:13;0.27;;;0.27;;
23206;SDS011;11773;52.570;13.052;2022-10-16T08:58:43;0.40;;;0.40;;
23206;SDS011;11773;52.570;13.052;2022-10-16T09:01:16;0.30;;;0.30;;
23206;SDS011;11773;52.570;13.052;2022-10-16T09:03:55;0.40;;;0.40;;
23206;SDS011;11773;52.570;13.052;2022-10-16T09:06:48;0.70;;;0.67;;
23206;SDS011;11773;52.570;13.052;2022-10-16T09:09:41;0.30;;;0.30;;
23206;SDS011;11773;52.570;13.052;2022-10-16T09:12:19;0.50;;;0.50;;
23206;SDS011;11773;52.570;13.052;2022-10-16T09:14:56;0.30;;;0.30;;
23206;SDS011;11773;52.570;13.052;2022-10-16T09:20:43;0.50;;;0.50;;
23206;SDS011;11773;52.570;13.052;2022-10-16T09:25:54;0.50;;;0.50;;
23206;SDS011;11773;52.570;13.052;2022-10-16T09:28:26;0.40;;;0.40;;
23206;SDS011;11773;52.570;13.052;2022-10-16T09:30:56;0.40;;;0.40;;
23206;SDS011;11773;52.570;13.052;2022-10-16T09:33:28;0.40;;;0.40;;
23206;SDS011;11773;52.570;13.052;2022-10-16T09:36:05;0.30;;;0.30;;
23206;SDS011;11773;52.570;13.052;2022-10-16T09:38:38;0.50;;;0.50;;
23206;SDS011;11773;52.570;13.052;2022-10-16T09:41:17;0.40;;;0.40;;
23206;SDS011;11773;52.570;13.052;2022-10-16T09:46:27;0.40;;;0.40;;
23206;SDS011;11773;52.570;13.052;2022-10-16T09:49:18;0.50;;;0.50;;
23206;SDS011;11773;52.570;13.052;2022-10-16T09:51:48;0.40;;;0.40;;
23206;SDS011;11773;52.570;13.052;2022-10-16T09:54:20;0.50;;;0.50;;
23206;SDS011;11773;52.570;13.052;2022-10-16T09:56:50;0.70;;;0.70;;
23206;SDS011;11773;52.570;13.052;2022-10-16T09:59:21;0.80;;;0.80;;
23206;SDS011;11773;52.570;13.052;2022-10-16T10:01:53;0.70;;;0.70;;
23206;SDS011;11773;52.570;13.052;2022-10-16T10:04:25;0.83;;;0.80;;
23206;SDS011;11773;52.570;13.052;2022-10-16T10:06:57;1.00;;;0.90;;
23206;SDS011;11773;52.570;13.052;2022-10-16T10:09:29;0.53;;;0.50;;
23206;SDS011;11773;52.570;13.052;2022-10-16T10:12:05;0.60;;;0.60;;
23206;SDS011;11773;52.570;13.052;2022-10-16T10:14:55;0.50;;;0.50;;
23206;SDS011;11773;52.570;13.052;2022-10-16T10:17:28;0.30;;;0.30;;
23206;SDS011;11773;52.570;13.052;2022-10-16T10:19:58;0.57;;;0.57;;
23206;SDS011;11773;52.570;13.052;2022-10-16T10:22:47;0.50;;;0.50;;
23206;SDS011;11773;52.570;13.052;2022-10-16T10:31:48;0.30;;;0.30;;
23206;SDS011;11773;52.570;13.052;2022-10-16T10:36:34;0.47;;;0.47;;
23206;SDS011;11773;52.570;13.052;2022-10-16T10:39:24;0.37;;;0.37;;
23206;SDS011;11773;52.570;13.052;2022-10-16T10:42:19;0.20;;;0.20;;
23206;SDS011;11773;52.570;13.052;2022-10-16T10:45:00;0.50;;;0.50;;
23206;SDS011;11773;52.570;13.052;2022-10-16T10:56:45;0.30;;;0.30;;
23206;SDS011;11773;52.570;13.052;2022-10-16T10:59:20;0.40;;;0.40;;
23206;SDS011;11773;52.570;13.052;2022-10-16T11:08:04;2.17;;;0.60;;
23206;SDS011;11773;52.570;13.052;2022-10-16T11:10:40;0.57;;;0.50;;
23206;SDS011;11773;52.570;13.052;2022-10-16T11:16:28;0.43;;;0.43;;
23206;SDS011;11773;52.570;13.052;2022-10-16T11:22:22;0.80;;;0.60;;
23206;SDS011;11773;52.570;13.052;2022-10-16T11:25:13;1.10;;;0.77;;
23206;SDS011;11773;52.570;13.052;2022-10-16T11:27:52;0.50;;;0.50;;
23206;SDS011;11773;52.570;13.052;2022-10-16T11:30:54;0.60;;;0.60;;
23206;SDS011;11773;52.570;13.052;2022-10-16T11:33:31;0.60;;;0.60;;
23206;SDS011;11773;52.570;13.052;2022-10-16T11:36:15;0.63;;;0.63;;
23206;SDS011;11773;52.570;13.052;2022-10-16T11:38:58;0.60;;;0.60;;
23206;SDS011;11773;52.570;13.052;2022-10-16T11:41:37;0.60;;;0.60;;
23206;SDS011;11773;52.570;13.052;2022-10-16T11:47:23;0.50;;;0.50;;
23206;SDS011;11773;52.570;13.052;2022-10-16T11:49:58;0.80;;;0.43;;
23206;SDS011;11773;52.570;13.052;2022-10-16T11:52:42;0.40;;;0.40;;
23206;SDS011;11773;52.570;13.052;2022-10-16T11:55:36;0.40;;;0.40;;
23206;SDS011;11773;52.570;13.052;2022-10-16T11:58:16;0.40;;;0.40;;
23206;SDS011;11773;52.570;13.052;2022-10-16T12:03:29;0.87;;;0.60;;
23206;SDS011;11773;52.570;13.052;2022-10-16T12:09:30;0.50;;;0.50;;
23206;SDS011;11773;52.570;13.052;2022-10-16T12:12:03;0.33;;;0.33;;
23206;SDS011;11773;52.570;13.052;2022-10-16T12:14:36;0.40;;;0.40;;
23206;SDS011;11773;52.570;13.052;2022-10-16T12:22:55;0.30;;;0.30;;
23206;SDS011;11773;52.570;13.052;2022-10-16T12:25:29;0.67;;;0.67;;
23206;SDS011;11773;52.570;13.052;2022-10-16T12:28:15;0.40;;;0.40;;
23206;SDS011;11773;52.570;13.052;2022-10-16T12:30:56;0.60;;;0.60;;
23206;SDS011;11773;52.570;13.052;2022-10-16T12:33:39;0.50;;;0.50;;
23206;SDS011;11773;52.570;13.052;2022-10-16T12:36:28;0.40;;;0.40;;
23206;SDS011;11773;52.570;13.052;2022-10-16T12:38:49;0.40;;;0.40;;
23206;SDS011;11773;52.570;13.052;2022-10-16T12:41:25;0.40;;;0.40;;
23206;SDS011;11773;52.570;13.052;2022-10-16T12:44:01;0.40;;;0.40;;
23206;SDS011;11773;52.570;13.052;2022-10-16T12:46:37;0.40;;;0.40;;
23206;SDS011;11773;52.570;13.052;2022-10-16T12:51:59;1.10;;;0.30;;
23206;SDS011;11773;52.570;13.052;2022-10-16T12:54:35;0.47;;;0.40;;
23206;SDS011;11773;52.570;13.052;2022-10-16T12:57:13;0.40;;;0.40;;
23206;SDS011;11773;52.570;13.052;2022-10-16T13:03:11;0.27;;;0.27;;
23206;SDS011;11773;52.570;13.052;2022-10-16T13:06:19;0.30;;;0.30;;
23206;SDS011;11773;52.570;13.052;2022-10-16T13:18:21;0.30;;;0.30;;
23206;SDS011;11773;52.570;13.052;2022-10-16T13:27:07;0.20;;;0.20;;
23206;SDS011;11773;52.570;13.052;2022-10-16T13:30:10;0.23;;;0.23;;
23206;SDS011;11773;52.570;13.052;2022-10-16T13:35:36;0.83;;;0.20;;
23206;SDS011;11773;52.570;13.052;2022-10-16T13:38:12;0.27;;;0.27;;
23206;SDS011;11773;52.570;13.052;2022-10-16T13:40:50;0.30;;;0.30;;
23206;SDS011;11773;52.570;13.052;2022-10-16T13:43:32;0.30;;;0.30;;
23206;SDS011;11773;52.570;13.052;2022-10-16T13:46:15;0.30;;;0.30;;
23206;SDS011;11773;52.570;13.052;2022-10-16T13:48:56;0.40;;;0.40;;
23206;SDS011;11773;52.570;13.052;2022-10-16T13:51:29;0.33;;;0.33;;
23206;SDS011;11773;52.570;13.052;2022-10-16T13:54:00;0.40;;;0.40;;
23206;SDS011;11773;52.570;13.052;2022-10-16T13:56:30;0.33;;;0.33;;
23206;SDS011;11773;52.570;13.052;2022-10-16T13:59:02;0.20;;;0.20;;
23206;SDS011;11773;52.570;13.052;2022-10-16T14:01:40;0.43;;;0.37;;
23206;SDS011;11773;52.570;13.052;2022-10-16T14:04:11;0.20;;;0.20;;
23206;SDS011;11773;52.570;13.052;2022-10-16T14:06:44;0.40;;;0.40;;
23206;SDS011;11773;52.570;13.052;2022-10-16T14:09:21;0.30;;;0.30;;
23206;SDS011;11773;52.570;13.052;2022-10-16T14:12:01;0.40;;;0.40;;
23206;SDS011;11773;52.570;13.052;2022-10-16T14:14:54;0.33;;;0.30;;
23206;SDS011;11773;52.570;13.052;2022-10-16T14:17:31;0.30;;;0.30;;
23206;SDS011;11773;52.570;13.052;2022-10-16T14:20:04;0.43;;;0.43;;
23206;SDS011;11773;52.570;13.052;2022-10-16T14:22:36;0.30;;;0.30;;
23206;SDS011;11773;52.570;13.052;2022-10-16T14:30:50;0.30;;;0.30;;
23206;SDS011;11773;52.570;13.052;2022-10-16T14:36:03;0.23;;;0.23;;
23206;SDS011;11773;52.570;13.052;2022-10-16T14:38:39;0.30;;;0.30;;
23206;SDS011;11773;52.570;13.052;2022-10-16T14:41:12;0.47;;;0.47;;
23206;SDS011;11773;52.570;13.052;2022-10-16T14:43:42;0.50;;;0.50;;
23206;SDS011;11773;52.570;13.052;2022-10-16T14:46:16;0.30;;;0.30;;
23206;SDS011;11773;52.570;13.052;2022-10-16T14:48:51;0.30;;;0.30;;
23206;SDS011;11773;52.570;13.052;2022-10-16T14:51:30;0.30;;;0.30;;
23206;SDS011;11773;52.570;13.052;2022-10-16T14:54:00;0.43;;;0.40;;
23206;SDS011;11773;52.570;13.052;2022-10-16T14:56:30;0.20;;;0.20;;
23206;SDS011;11773;52.570;13.052;2022-10-16T14:59:07;0.70;;;0.47;;
23206;SDS011;11773;52.570;13.052;2022-10-16T15:01:46;0.23;;;0.23;;
23206;SDS011;11773;52.570;13.052;2022-10-16T15:04:16;0.43;;;0.30;;
23206;SDS011;11773;52.570;13.052;2022-10-16T15:06:45;0.30;;;0.30;;
23206;SDS011;11773;52.570;13.052;2022-10-16T15:09:15;0.20;;;0.20;;
23206;SDS011;11773;52.570;13.052;2022-10-16T15:11:44;0.30;;;0.30;;
23206;SDS011;11773;52.570;13.052;2022-10-16T15:14:14;0.30;;;0.30;;
23206;SDS011;11773;52.570;13.052;2022-10-16T15:16:44;0.30;;;0.30;;
23206;SDS011;11773;52.570;13.052;2022-10-16T15:19:13;0.63;;;0.33;;
23206;SDS011;11773;52.570;13.052;2022-10-16T15:21:43;0.40;;;0.30;;
23206;SDS011;11773;52.570;13.052;2022-10-16T15:24:13;0.30;;;0.30;;
23206;SDS011;11773;52.570;13.052;2022-10-16T15:26:44;0.20;;;0.20;;
23206;SDS011;11773;52.570;13.052;2022-10-16T15:29:14;0.30;;;0.30;;
23206;SDS011;11773;52.570;13.052;2022-10-16T15:31:44;0.20;;;0.20;;
23206;SDS011;11773;52.570;13.052;2022-10-16T15:34:14;0.20;;;0.20;;
23206;SDS011;11773;52.570;13.052;2022-10-16T15:36:46;0.30;;;0.30;;
23206;SDS011;11773;52.570;13.052;2022-10-16T15:39:16;0.20;;;0.20;;
23206;SDS011;11773;52.570;13.052;2022-10-16T15:41:48;0.20;;;0.20;;
23206;SDS011;11773;52.570;13.052;2022-10-16T15:44:18;0.10;;;0.10;;
23206;SDS011;11773;52.570;13.052;2022-10-16T15:46:50;0.30;;;0.30;;
23206;SDS011;11773;52.570;13.052;2022-10-16T15:49:22;0.30;;;0.30;;
23206;SDS011;11773;52.570;13.052;2022-10-16T15:51:51;0.13;;;0.13;;
23206;SDS011;11773;52.570;13.052;2022-10-16T15:54:21;0.20;;;0.20;;
23206;SDS011;11773;52.570;13.052;2022-10-16T15:56:51;0.20;;;0.20;;
23206;SDS011;11773;52.570;13.052;2022-10-16T15:59:20;0.30;;;0.30;;
23206;SDS011;11773;52.570;13.052;2022-10-16T16:01:50;0.20;;;0.20;;
23206;SDS011;11773;52.570;13.052;2022-10-16T16:04:19;0.30;;;0.30;;
23206;SDS011;11773;52.570;13.052;2022-10-16T16:06:51;0.30;;;0.30;;
23206;SDS011;11773;52.570;13.052;2022-10-16T16:09:21;0.20;;;0.20;;
23206;SDS011;11773;52.570;13.052;2022-10-16T16:11:50;0.20;;;0.20;;
23206;SDS011;11773;52.570;13.052;2022-10-16T16:14:20;0.30;;;0.30;;
23206;SDS011;11773;52.570;13.052;2022-10-16T16:16:51;0.30;;;0.30;;
23206;SDS011;11773;52.570;13.052;2022-10-16T16:19:20;0.20;;;0.20;;
23206;SDS011;11773;52.570;13.052;2022-10-16T16:21:50;0.57;;;0.57;;
23206;SDS011;11773;52.570;13.052;2022-10-16T16:24:20;0.83;;;0.83;;
23206;SDS011;11773;52.570;13.052;2022-10-16T16:26:49;1.10;;;1.00;;
23206;SDS011;11773;52.570;13.052;2022-10-16T16:29:19;0.83;;;0.83;;
23206;SDS011;11773;52.570;13.052;2022-10-16T16:31:48;0.80;;;0.80;;
23206;SDS011;11773;52.570;13.052;2022-10-16T16:34:19;0.90;;;0.90;;
23206;SDS011;11773;52.570;13.052;2022-10-16T16:36:49;1.00;;;1.00;;
23206;SDS011;11773;52.570;13.052;2022-10-16T16:39:19;1.37;;;0.83;;
23206;SDS011;11773;52.570;13.052;2022-10-16T16:41:49;0.70;;;0.70;;
23206;SDS011;11773;52.570;13.052;2022-10-16T16:44:19;0.67;;;0.67;;
23206;SDS011;11773;52.570;13.052;2022-10-16T16:46:48;1.27;;;1.00;;